createdAt,value
2023-01-22T00:00:58.835Z,5.4
2023-01-22T00:03:27.095Z,6
2023-01-22T00:05:55.345Z,5
2023-01-22T00:07:11.612Z,5.9
2023-01-22T00:08:23.610Z,5.9
2023-01-22T00:10:51.859Z,5.7
2023-01-22T00:13:20.117Z,6.1
2023-01-22T00:15:48.373Z,5.9
2023-01-22T00:18:16.628Z,5.4
2023-01-22T00:20:44.889Z,5.3
2023-01-22T00:23:13.141Z,5.7
2023-01-22T00:25:41.399Z,6
2023-01-22T00:28:09.652Z,5.5
2023-01-22T00:31:54.193Z,6.4
2023-01-22T00:33:06.170Z,6.4
2023-01-22T00:35:34.425Z,6
2023-01-22T00:38:02.686Z,6.2
2023-01-22T00:40:30.941Z,6.7
2023-01-22T00:42:59.197Z,6.3
2023-01-22T00:45:27.455Z,6.5
2023-01-22T00:47:55.717Z,6.7
2023-01-22T00:50:23.966Z,6.5
2023-01-22T00:52:52.229Z,6.5
2023-01-22T00:55:20.478Z,7
2023-01-22T00:56:36.782Z,6.5
2023-01-22T00:57:48.743Z,7.1
2023-01-22T01:02:45.258Z,7.3
2023-01-22T01:05:13.505Z,7.1
2023-01-22T01:07:41.763Z,6.7
2023-01-22T01:10:10.026Z,6.9
2023-01-22T01:12:38.281Z,6.3
2023-01-22T01:15:06.533Z,6.1
2023-01-22T01:17:34.796Z,6.7
2023-01-22T01:20:03.050Z,6.3
2023-01-22T01:21:19.365Z,5.4
2023-01-22T01:22:31.303Z,5.7
2023-01-22T01:24:59.567Z,5.5
2023-01-22T01:27:27.818Z,6
2023-01-22T01:29:56.081Z,5.3
2023-01-22T01:34:52.589Z,5.6
2023-01-22T01:37:20.853Z,5.8
2023-01-22T01:39:49.109Z,5.3
2023-01-22T01:42:17.366Z,5.3
2023-01-22T01:44:45.619Z,4.7
2023-01-22T01:46:01.955Z,4.8
2023-01-22T01:47:13.881Z,4.9
2023-01-22T01:49:42.135Z,5
2023-01-22T01:52:10.393Z,4.8
2023-01-22T01:54:38.647Z,5.5
2023-01-22T01:57:06.901Z,4.7
2023-01-22T01:59:35.164Z,4.9
2023-01-22T02:02:03.418Z,4.9
2023-01-22T02:06:59.934Z,4.8
2023-01-22T02:09:28.181Z,5.3
2023-01-22T02:10:44.535Z,4.8
2023-01-22T02:11:56.447Z,5.2
2023-01-22T02:14:24.700Z,5.1
2023-01-22T02:16:52.958Z,5
2023-01-22T02:19:21.216Z,4.5
2023-01-22T02:21:49.470Z,4.6
2023-01-22T02:24:17.724Z,4.5
2023-01-22T02:26:45.983Z,5.3
2023-01-22T02:29:14.237Z,5.7
2023-01-22T02:31:42.497Z,5.4
2023-01-22T02:34:10.745Z,4.8
2023-01-22T02:36:39.003Z,5.5
2023-01-22T02:39:07.261Z,4.8
2023-01-22T02:41:35.525Z,5.9
2023-01-22T02:44:03.776Z,4.8
2023-01-22T02:46:32.075Z,5
2023-01-22T02:49:00.286Z,5.1
2023-01-22T02:51:28.546Z,5.2
2023-01-22T02:53:56.800Z,5.4
2023-01-22T02:56:25.060Z,6
2023-01-22T02:58:53.320Z,5.6
2023-01-22T03:00:09.704Z,5.2
2023-01-22T03:01:21.577Z,5.9
2023-01-22T03:03:49.835Z,5.7
2023-01-22T03:08:46.346Z,5.6
2023-01-22T03:11:14.601Z,5.5
2023-01-22T03:13:42.860Z,5.5
2023-01-22T03:16:11.117Z,5.5
2023-01-22T03:18:39.368Z,5.3
2023-01-22T03:21:07.627Z,5.3
2023-01-22T03:23:35.879Z,5.4
2023-01-22T03:24:52.294Z,5.1
2023-01-22T03:26:04.139Z,5.2
2023-01-22T03:28:32.395Z,5.4
2023-01-22T03:31:00.658Z,5.8
2023-01-22T03:33:28.910Z,5.1
2023-01-22T03:35:57.164Z,5.7
2023-01-22T03:40:53.682Z,5.6
2023-01-22T03:43:21.938Z,5.7
2023-01-22T03:45:50.194Z,5.6
2023-01-22T03:48:18.452Z,5
2023-01-22T03:49:34.874Z,5.1
2023-01-22T03:50:46.712Z,5
2023-01-22T03:53:14.962Z,4.6
2023-01-22T03:55:43.221Z,5
2023-01-22T03:58:11.481Z,4.9
2023-01-22T04:00:39.739Z,4.8
2023-01-22T04:03:07.994Z,4.2
2023-01-22T04:05:36.245Z,5.1
2023-01-22T04:08:04.505Z,4.3
2023-01-22T04:13:01.023Z,5.2
2023-01-22T04:14:17.465Z,4.7
2023-01-22T04:15:29.282Z,5
2023-01-22T04:17:57.536Z,5.1
2023-01-22T04:20:25.789Z,5.3
2023-01-22T04:22:54.052Z,4.8
2023-01-22T04:25:22.307Z,4.7
2023-01-22T04:27:50.560Z,4.9
2023-01-22T04:30:18.823Z,4.3
2023-01-22T04:32:47.080Z,4.9
2023-01-22T04:35:15.336Z,4.9
2023-01-22T04:37:43.588Z,4.5
2023-01-22T04:39:00.051Z,4.9
2023-01-22T04:42:40.106Z,4.6
2023-01-22T04:45:08.358Z,4.5
2023-01-22T04:47:36.620Z,4.8
2023-01-22T04:50:04.870Z,4.4
2023-01-22T04:52:33.134Z,4.3
2023-01-22T04:55:01.386Z,4.6
2023-01-22T04:57:29.648Z,4.5
2023-01-22T04:59:57.901Z,4.5
2023-01-22T05:02:26.155Z,4.1
2023-01-22T05:03:42.638Z,4.6
2023-01-22T05:04:54.414Z,4.6
2023-01-22T05:07:22.670Z,4.8
2023-01-22T05:09:50.924Z,5.1
2023-01-22T05:14:47.440Z,4.4
2023-01-22T05:17:15.700Z,5.1
2023-01-22T05:19:43.960Z,4.5
2023-01-22T05:22:12.216Z,4.7
2023-01-22T05:24:40.466Z,5.3
2023-01-22T05:27:08.745Z,5
2023-01-22T05:28:25.236Z,4.7
2023-01-22T05:29:37.002Z,5.2
2023-01-22T05:32:05.259Z,4.6
2023-01-22T05:34:33.516Z,5
2023-01-22T05:37:01.766Z,4.8
2023-01-22T05:39:30.022Z,5
2023-01-22T05:41:58.283Z,5.1
2023-01-22T05:46:54.800Z,5
2023-01-22T05:49:23.053Z,4.8
2023-01-22T05:51:51.310Z,5.2
2023-01-22T05:53:07.821Z,5.1
2023-01-22T05:54:19.562Z,5.2
2023-01-22T05:56:47.819Z,5.1
2023-01-22T05:59:16.083Z,4.9
2023-01-22T06:01:44.333Z,5.2
2023-01-22T06:04:12.593Z,5
2023-01-22T06:06:40.845Z,5.2
2023-01-22T06:09:09.103Z,5.2
2023-01-22T06:11:37.365Z,4.6
2023-01-22T06:14:05.621Z,5
2023-01-22T06:17:50.409Z,4.7
2023-01-22T06:19:02.134Z,5.1
2023-01-22T06:21:30.390Z,5.2
2023-01-22T06:23:58.645Z,4.9
2023-01-22T06:26:26.906Z,5
2023-01-22T06:28:55.148Z,4.9
2023-01-22T06:31:23.402Z,5.5
2023-01-22T06:33:51.657Z,5.1
2023-01-22T06:36:19.917Z,4.8
2023-01-22T06:38:48.170Z,5.2
2023-01-22T06:41:16.428Z,5.3
2023-01-22T06:42:32.975Z,4.9
2023-01-22T06:43:44.685Z,5.8
2023-01-22T06:48:41.204Z,5.4
2023-01-22T06:51:09.458Z,5.6
2023-01-22T06:53:37.723Z,5.4
2023-01-22T06:56:05.979Z,5.8
2023-01-22T06:58:34.233Z,5.7
2023-01-22T07:01:02.488Z,4.9
2023-01-22T07:03:30.746Z,5.7
2023-01-22T07:05:58.999Z,4.8
2023-01-22T07:07:15.566Z,4.9
2023-01-22T07:08:27.262Z,6
2023-01-22T07:10:55.520Z,5.4
2023-01-22T07:13:23.771Z,5.6
2023-01-22T07:15:52.033Z,5.8
2023-01-22T07:20:48.543Z,5.6
2023-01-22T07:23:16.804Z,5
2023-01-22T07:25:45.060Z,5.2
2023-01-22T07:28:13.319Z,5.5
2023-01-22T07:30:41.570Z,5
2023-01-22T07:31:58.158Z,4.9
2023-01-22T07:33:09.830Z,5.2
2023-01-22T07:35:38.090Z,5.1
2023-01-22T07:38:06.340Z,4.8
2023-01-22T07:40:34.601Z,4.8
2023-01-22T07:43:02.855Z,5
2023-01-22T07:45:31.111Z,5.3
2023-01-22T07:47:59.369Z,5.4
2023-01-22T07:52:55.887Z,5.1
2023-01-22T07:55:24.143Z,5.1
2023-01-22T07:56:40.739Z,4.9
2023-01-22T07:57:52.402Z,5.1
2023-01-22T08:00:20.659Z,4.6
2023-01-22T08:02:48.913Z,5.1
2023-01-22T08:05:17.167Z,4.7
2023-01-22T08:07:45.433Z,4.4
2023-01-22T08:10:13.689Z,4.7
2023-01-22T08:12:41.945Z,4.7
2023-01-22T08:15:10.197Z,4.9
2023-01-22T08:17:38.453Z,4.5
2023-01-22T08:20:06.712Z,4.7
2023-01-22T08:22:34.972Z,5
2023-01-22T08:25:03.226Z,4.5
2023-01-22T08:27:31.487Z,4.8
2023-01-22T08:29:59.745Z,4.6
2023-01-22T08:32:28.003Z,4.2
2023-01-22T08:34:56.259Z,4
2023-01-22T08:37:24.513Z,4.5
2023-01-22T08:39:52.767Z,4.2
2023-01-22T08:42:21.032Z,3.9
2023-01-22T08:44:49.284Z,4.7
2023-01-22T08:46:05.928Z,4.1
2023-01-22T08:47:17.542Z,4.4
2023-01-22T08:49:45.802Z,4
2023-01-22T08:54:42.312Z,4.4
2023-01-22T08:57:10.575Z,4
2023-01-22T08:59:38.828Z,4.7
2023-01-22T09:02:07.086Z,4.5
2023-01-22T09:04:35.344Z,4.7
2023-01-22T09:07:03.600Z,4.6
2023-01-22T09:09:31.863Z,4.5
2023-01-22T09:10:48.508Z,5.2
2023-01-22T09:12:00.118Z,4.5
2023-01-22T09:14:28.370Z,5.2
2023-01-22T09:16:56.632Z,4.8
2023-01-22T09:19:24.885Z,4.6
2023-01-22T09:21:53.149Z,4.3
2023-01-22T09:26:49.661Z,4.6
2023-01-22T09:29:17.915Z,4.5
2023-01-22T09:31:46.169Z,4.9
2023-01-22T09:34:14.426Z,4.4
2023-01-22T09:35:31.101Z,4.7
2023-01-22T09:36:42.694Z,4.2
2023-01-22T09:39:10.949Z,4.7
2023-01-22T09:41:39.205Z,4.3
2023-01-22T09:44:07.460Z,4.8
2023-01-22T09:46:35.713Z,4.6
2023-01-22T09:49:03.979Z,4.6
2023-01-22T09:51:32.231Z,4.7
2023-01-22T09:54:00.484Z,4.7
2023-01-22T09:58:57.001Z,4.8
2023-01-22T10:00:13.691Z,4.6
2023-01-22T10:01:25.257Z,4.7
2023-01-22T10:03:53.525Z,4.3
2023-01-22T10:06:21.777Z,4.3
2023-01-22T10:08:50.030Z,4.2
2023-01-22T10:11:18.289Z,4.9
2023-01-22T10:13:46.552Z,4.6
2023-01-22T10:16:14.809Z,4.7
2023-01-22T10:18:43.062Z,5
2023-01-22T10:21:11.320Z,4.6
2023-01-22T10:23:39.574Z,3.9
2023-01-22T10:24:56.284Z,4.2
2023-01-22T10:28:36.096Z,5.1
2023-01-22T10:31:04.348Z,4.5
2023-01-22T10:33:32.608Z,4.6
2023-01-22T10:36:00.859Z,4.5
2023-01-22T10:38:29.116Z,4.8
2023-01-22T10:40:57.373Z,4.9
2023-01-22T10:43:25.631Z,4.5
2023-01-22T10:45:53.895Z,4.9
2023-01-22T10:48:22.150Z,4
2023-01-22T10:49:38.877Z,4.9
2023-01-22T10:50:50.423Z,4.3
2023-01-22T10:53:18.671Z,4.1
2023-01-22T10:55:46.925Z,4.7
2023-01-22T11:00:43.446Z,4.4
2023-01-22T11:03:11.701Z,4.1
2023-01-22T11:05:39.953Z,4.3
2023-01-22T11:08:08.211Z,4.7
2023-01-22T11:10:36.469Z,4.4
2023-01-22T11:13:04.729Z,4.7
2023-01-22T11:14:21.457Z,3.9
2023-01-22T11:15:32.999Z,3.9
2023-01-22T11:18:01.257Z,4.2
2023-01-22T11:20:29.513Z,3.8
2023-01-22T11:22:57.770Z,3.5
2023-01-22T11:25:26.029Z,3.9
2023-01-22T11:27:54.287Z,4.1
2023-01-22T11:32:50.801Z,4.3
2023-01-22T11:35:19.054Z,4.5
2023-01-22T11:37:47.315Z,3.9
2023-01-22T11:39:04.043Z,3.4
2023-01-22T11:40:15.592Z,3.5
2023-01-22T11:42:43.841Z,3.5
2023-01-22T11:45:12.101Z,3.9
2023-01-22T11:47:40.355Z,3.7
2023-01-22T11:50:08.616Z,3.4
2023-01-22T11:52:36.867Z,3.3
2023-01-22T11:55:05.125Z,3.5
2023-01-22T11:57:33.382Z,2.9
2023-01-22T12:00:01.640Z,3.1
2023-01-22T12:03:46.634Z,3.1
2023-01-22T12:04:58.177Z,2.3
2023-01-22T12:07:26.426Z,4.1
2023-01-22T12:09:54.688Z,3
2023-01-22T12:12:22.945Z,7.7
2023-01-22T12:14:51.203Z,9
2023-01-22T12:17:19.455Z,7.6
2023-01-22T12:19:47.713Z,4.7
2023-01-22T12:22:15.971Z,4.3
2023-01-22T12:24:44.225Z,3
2023-01-22T12:27:12.485Z,3.6
2023-01-22T12:28:29.213Z,4.1
2023-01-22T12:29:40.754Z,3.6
2023-01-22T12:34:37.270Z,3.4
2023-01-22T12:37:05.531Z,3.7
2023-01-22T12:39:33.781Z,4.2
2023-01-22T12:42:02.044Z,5.3
2023-01-22T12:44:30.298Z,3.7
2023-01-22T12:46:58.557Z,3.9
2023-01-22T12:49:26.811Z,5.3
2023-01-22T12:51:55.063Z,7.2
2023-01-22T12:53:11.796Z,9.6
2023-01-22T12:54:23.342Z,4.7
2023-01-22T12:56:51.601Z,3.9
2023-01-22T12:59:19.851Z,3.8
2023-01-22T13:01:48.106Z,3.8
2023-01-22T13:06:44.623Z,3.2
2023-01-22T13:09:12.884Z,3.4
2023-01-22T13:11:41.136Z,2.9
2023-01-22T13:14:09.396Z,3.1
2023-01-22T13:16:37.655Z,2.4
2023-01-22T13:17:54.384Z,2.8
2023-01-22T13:19:05.924Z,3.3
2023-01-22T13:21:34.182Z,3
2023-01-22T13:24:02.445Z,2.7
2023-01-22T13:26:30.700Z,3.2
2023-01-22T13:28:58.954Z,3
2023-01-22T13:31:27.208Z,3.4
2023-01-22T13:33:55.469Z,3
2023-01-22T13:38:51.979Z,3.2
2023-01-22T13:41:20.234Z,3.5
2023-01-22T13:42:36.972Z,2.9
2023-01-22T13:43:48.514Z,3.1
2023-01-22T13:46:16.763Z,2.7
2023-01-22T13:48:45.027Z,3.5
2023-01-22T13:51:13.283Z,3.4
2023-01-22T13:53:41.538Z,3.3
2023-01-22T13:56:09.795Z,2.9
2023-01-22T13:58:38.051Z,3.1
2023-01-22T14:01:06.305Z,2.9
2023-01-22T14:03:34.558Z,3.5
2023-01-22T14:06:02.814Z,4.3
2023-01-22T14:08:31.076Z,6.9
2023-01-22T14:10:59.329Z,6.4
2023-01-22T14:13:27.590Z,6.4
2023-01-22T14:15:55.849Z,6.8
2023-01-22T14:18:24.105Z,7.4
2023-01-22T14:20:52.363Z,10.1
2023-01-22T14:23:20.613Z,8
2023-01-22T14:25:48.873Z,7.4
2023-01-22T14:28:17.128Z,7.7
2023-01-22T14:30:45.384Z,6.9
2023-01-22T14:32:02.130Z,6.3
2023-01-22T14:33:13.677Z,6.1
2023-01-22T14:35:41.932Z,5.8
2023-01-22T14:40:38.443Z,4.9
2023-01-22T14:43:06.699Z,4.5
2023-01-22T14:45:34.961Z,3.8
2023-01-22T14:48:03.210Z,3.4
2023-01-22T14:50:31.468Z,3.3
2023-01-22T14:52:59.726Z,3
2023-01-22T14:55:27.988Z,2.9
2023-01-22T14:56:44.715Z,2.8
2023-01-22T14:57:56.257Z,3
2023-01-22T15:00:24.515Z,4.6
2023-01-22T15:02:52.773Z,3.5
2023-01-22T15:05:21.033Z,2.9
2023-01-22T15:07:49.286Z,2.2
2023-01-22T15:12:45.803Z,2.6
2023-01-22T15:15:14.053Z,2.3
2023-01-22T15:17:42.309Z,2.6
2023-01-22T15:20:10.565Z,2.6
2023-01-22T15:21:27.303Z,2.5
2023-01-22T15:22:38.848Z,2.5
2023-01-22T15:25:07.098Z,3
2023-01-22T15:27:35.354Z,2.6
2023-01-22T15:30:03.614Z,2.1
2023-01-22T15:32:31.871Z,2.2
2023-01-22T15:35:00.125Z,2.6
2023-01-22T15:37:28.381Z,2.9
2023-01-22T15:39:56.638Z,3
2023-01-22T15:44:53.157Z,2.9
2023-01-22T15:46:09.891Z,2.7
2023-01-22T15:47:21.428Z,10.5
2023-01-22T15:49:49.687Z,10.2
2023-01-22T15:52:17.943Z,12.8
2023-01-22T15:54:46.201Z,19
2023-01-22T15:57:14.456Z,11.8
2023-01-22T15:59:42.709Z,5.5
2023-01-22T16:02:10.963Z,3.6
2023-01-22T16:04:39.226Z,3.7
2023-01-22T16:07:07.478Z,4.6
2023-01-22T16:09:35.738Z,3.9
2023-01-22T16:10:52.465Z,6.4
2023-01-22T16:14:32.504Z,3.5
2023-01-22T16:17:00.752Z,6.7
2023-01-22T16:19:29.010Z,7.2
2023-01-22T16:21:57.268Z,4.9
2023-01-22T16:24:25.528Z,4.9
2023-01-22T16:26:53.780Z,5.1
2023-01-22T16:29:22.039Z,3.9
2023-01-22T16:31:50.291Z,3.7
2023-01-22T16:34:18.549Z,5.3
2023-01-22T16:35:35.287Z,5
2023-01-22T16:36:46.827Z,8.3
2023-01-22T16:39:15.079Z,9.3
2023-01-22T16:41:43.335Z,29.7
2023-01-22T16:46:39.848Z,15.4
2023-01-22T16:49:08.108Z,6.1
2023-01-22T16:51:36.362Z,12.3
2023-01-22T16:54:04.620Z,12.2
2023-01-22T16:56:32.872Z,9
2023-01-22T16:59:01.130Z,9.6
2023-01-22T17:00:17.870Z,7.9
2023-01-22T17:01:29.409Z,11
2023-01-22T17:03:57.673Z,6
2023-01-22T17:06:25.921Z,5.6
2023-01-22T17:08:54.179Z,6.3
2023-01-22T17:11:22.437Z,5.2
2023-01-22T17:13:50.693Z,4.8
2023-01-22T17:18:47.205Z,6.7
2023-01-22T17:21:15.458Z,15.5
2023-01-22T17:23:43.718Z,5.1
2023-01-22T17:25:00.446Z,5.1
2023-01-22T17:26:11.998Z,4.8
2023-01-22T17:28:40.254Z,6
2023-01-22T17:31:08.511Z,5.8
2023-01-22T17:33:36.760Z,4.1
2023-01-22T17:36:05.026Z,8.5
2023-01-22T17:38:33.276Z,3.5
2023-01-22T17:41:01.536Z,3.5
2023-01-22T17:43:29.792Z,3
2023-01-22T17:45:58.052Z,3.8
2023-01-22T17:49:43.040Z,3.3
2023-01-22T17:50:54.578Z,3.5
2023-01-22T17:53:22.835Z,3.2
2023-01-22T17:55:51.098Z,5.2
2023-01-22T17:58:19.345Z,4.1
2023-01-22T18:00:47.603Z,3.6
2023-01-22T18:03:15.863Z,3
2023-01-22T18:05:44.122Z,3
2023-01-22T18:08:12.372Z,3.1
2023-01-22T18:10:40.633Z,4.3
2023-01-22T18:13:08.892Z,3.4
2023-01-22T18:14:25.621Z,2.9
2023-01-22T18:15:37.167Z,10.7
2023-01-22T18:20:33.678Z,7
2023-01-22T18:23:01.938Z,4.6
2023-01-22T18:25:30.195Z,5.9
2023-01-22T18:27:58.446Z,4.4
2023-01-22T18:30:26.702Z,3.9
2023-01-22T18:32:54.960Z,3.1
2023-01-22T18:35:23.219Z,5.2
2023-01-22T18:37:51.481Z,9.8
2023-01-22T18:39:08.214Z,3.9
2023-01-22T18:40:19.753Z,2.8
2023-01-22T18:42:48.013Z,2.7
2023-01-22T18:45:16.272Z,3.1
2023-01-22T18:47:44.528Z,5.4
2023-01-22T18:52:41.038Z,4.7
2023-01-22T18:55:09.298Z,3.3
2023-01-22T18:57:37.555Z,3.5
2023-01-22T19:00:05.809Z,3.8
2023-01-22T19:02:34.060Z,4.7
2023-01-22T19:03:50.799Z,5.8
2023-01-22T19:05:02.345Z,6.1
2023-01-22T19:07:30.594Z,4.6
2023-01-22T19:09:58.854Z,4.3
2023-01-22T19:12:27.109Z,3.7
2023-01-22T19:14:55.367Z,3.2
2023-01-22T19:17:23.621Z,3.9
2023-01-22T19:19:51.879Z,4.3
2023-01-22T19:24:48.399Z,6.4
2023-01-22T19:27:16.657Z,3.4
2023-01-22T19:28:33.385Z,2.6
2023-01-22T19:29:44.928Z,2.4
2023-01-22T19:32:13.185Z,2.8
2023-01-22T19:34:41.442Z,2.2
2023-01-22T19:37:09.697Z,2.9
2023-01-22T19:39:37.960Z,4.6
2023-01-22T19:42:06.214Z,6
2023-01-22T19:44:34.470Z,6.8
2023-01-22T19:47:02.724Z,3.7
2023-01-22T19:49:30.985Z,3.4
2023-01-22T19:51:59.241Z,2.6
2023-01-22T19:54:27.508Z,3
2023-01-22T19:56:55.764Z,2.7
2023-01-22T19:59:24.019Z,2.6
2023-01-22T20:01:52.275Z,2
2023-01-22T20:04:20.528Z,2.6
2023-01-22T20:06:48.785Z,2.4
2023-01-22T20:09:17.041Z,2.2
2023-01-22T20:11:45.299Z,2
2023-01-22T20:14:13.560Z,3
2023-01-22T20:16:41.817Z,2.4
2023-01-22T20:17:58.561Z,2.1
2023-01-22T20:19:10.111Z,2
2023-01-22T20:21:38.366Z,2.5
2023-01-22T20:26:34.875Z,2.2
2023-01-22T20:29:03.135Z,2.6
2023-01-22T20:31:31.391Z,2.9
2023-01-22T20:33:59.643Z,2.3
2023-01-22T20:36:27.903Z,3
2023-01-22T20:38:56.166Z,2.9
2023-01-22T20:41:24.420Z,3
2023-01-22T20:42:41.157Z,2.9
2023-01-22T20:43:52.691Z,2.6
2023-01-22T20:46:20.951Z,3
2023-01-22T20:48:49.206Z,2.9
2023-01-22T20:51:17.471Z,2.9
2023-01-22T20:53:45.720Z,3.1
2023-01-22T20:58:42.241Z,2.7
2023-01-22T21:01:10.498Z,3
2023-01-22T21:03:38.746Z,5.2
2023-01-22T21:06:07.007Z,5.2
2023-01-22T21:07:23.743Z,4.8
2023-01-22T21:08:35.283Z,6.5
2023-01-22T21:11:03.540Z,5.8
2023-01-22T21:13:31.802Z,6.1
2023-01-22T21:16:00.056Z,4.9
2023-01-22T21:18:28.312Z,9.1
2023-01-22T21:20:56.566Z,7.1
2023-01-22T21:23:24.830Z,4
2023-01-22T21:25:53.086Z,3.5
2023-01-22T21:30:49.601Z,3.3
2023-01-22T21:32:06.335Z,3.5
2023-01-22T21:33:17.877Z,3
2023-01-22T21:35:46.132Z,2.9
2023-01-22T21:38:14.387Z,3.2
2023-01-22T21:40:42.640Z,3.2
2023-01-22T21:43:10.897Z,3
2023-01-22T21:45:39.156Z,2.9
2023-01-22T21:48:07.414Z,3.4
2023-01-22T21:50:35.671Z,3.3
2023-01-22T21:53:03.926Z,2.8
2023-01-22T21:55:32.185Z,2.8
2023-01-22T21:56:48.921Z,2.7
2023-01-22T22:00:28.955Z,3.1
2023-01-22T22:02:57.206Z,3
2023-01-22T22:05:25.463Z,3.1
2023-01-22T22:07:53.725Z,3.4
2023-01-22T22:10:21.982Z,3.4
2023-01-22T22:12:50.232Z,3.2
2023-01-22T22:15:18.497Z,3.3
2023-01-22T22:17:46.747Z,3.1
2023-01-22T22:20:15.005Z,2.8
2023-01-22T22:21:31.737Z,3.3
2023-01-22T22:22:43.287Z,3.1
2023-01-22T22:25:11.537Z,3
2023-01-22T22:27:39.795Z,3
2023-01-22T22:32:36.307Z,2.4
2023-01-22T22:35:04.572Z,2.9
2023-01-22T22:37:32.825Z,2.4
2023-01-22T22:40:01.078Z,2.7
2023-01-22T22:42:29.343Z,3.2
2023-01-22T22:44:57.595Z,2.7
2023-01-22T22:46:14.330Z,2.6
2023-01-22T22:47:25.875Z,3
2023-01-22T22:49:54.127Z,2.5
2023-01-22T22:52:22.385Z,3
2023-01-22T22:54:50.641Z,2.2
2023-01-22T22:57:18.907Z,2.8
2023-01-22T22:59:47.161Z,2.3
2023-01-22T23:04:43.672Z,2.3
2023-01-22T23:07:11.933Z,2.6
2023-01-22T23:09:40.186Z,2.2
2023-01-22T23:10:56.922Z,2.6
2023-01-22T23:12:08.467Z,2.6
2023-01-22T23:14:36.726Z,2.2
2023-01-22T23:17:04.984Z,2
2023-01-22T23:19:33.240Z,2.2
2023-01-22T23:22:01.492Z,1.9
2023-01-22T23:24:29.756Z,1.9
2023-01-22T23:26:58.008Z,2.2
2023-01-22T23:29:26.265Z,1.8
2023-01-22T23:31:54.518Z,1.9
2023-01-22T23:35:39.513Z,1.6
2023-01-22T23:36:51.059Z,1.6
2023-01-22T23:39:19.312Z,1.6
2023-01-22T23:41:47.570Z,1.4
2023-01-22T23:44:15.831Z,1.9
2023-01-22T23:46:44.087Z,1.8
2023-01-22T23:49:12.344Z,1.4
2023-01-22T23:51:40.595Z,1.6
2023-01-22T23:54:08.852Z,1.6
2023-01-22T23:56:37.113Z,1.4
2023-01-22T23:59:05.371Z,1.4
